Time;durP1;ratioP1;P1;durP2;ratioP2;P2;SDS_P1;SDS_P2;PMS_P1;PMS_P2;Temp;Humidity;BMP_temperature;BMP_pressure;BME280_temperature;BME280_humidity;BME280_pressure;Samples;Min_cycle;Max_cycle;Signal;HPM_P1;HPM_P2
2023/09/20 00:02:07;;;;;;;6.15;2.50;;;;;;;;;;6243175;23;20066;-91
2023/09/20 00:04:35;;;;;;;4.00;2.10;;;;;;;;;;6243029;23;20051;-90
2023/09/20 00:07:02;;;;;;;5.95;2.00;;;;;;;;;;6210557;23;20432;-92
2023/09/20 00:09:30;;;;;;;6.18;2.40;;;;;;;;;;6212116;23;20176;-90
2023/09/20 00:11:56;;;;;;;4.22;2.45;;;;;;;;;;6210633;23;20012;-92
2023/09/20 00:14:22;;;;;;;5.65;2.30;;;;;;;;;;6212231;23;20390;-91
2023/09/20 00:16:50;;;;;;;4.88;2.72;;;;;;;;;;6212159;23;20008;-91
2023/09/20 00:19:16;;;;;;;4.13;2.25;;;;;;;;;;6212351;23;20365;-91
2023/09/20 00:21:42;;;;;;;3.60;2.03;;;;;;;;;;6213710;23;20008;-92
2023/09/20 00:24:09;;;;;;;5.25;1.80;;;;;;;;;;6210520;23;20027;-89
2023/09/20 00:26:35;;;;;;;4.97;1.95;;;;;;;;;;6211685;23;20024;-91
2023/09/20 00:29:05;;;;;;;4.47;2.20;;;;;;;;;;6210367;23;20051;-90
2023/09/20 00:31:32;;;;;;;5.13;2.25;;;;;;;;;;6210037;23;20020;-89
2023/09/20 00:33:58;;;;;;;4.10;2.28;;;;;;;;;;6211800;23;20144;-87
2023/09/20 00:36:24;;;;;;;7.30;2.75;;;;;;;;;;6211280;23;20019;-91
2023/09/20 00:38:51;;;;;;;6.10;2.03;;;;;;;;;;6211845;23;20617;-90
2023/09/20 00:41:18;;;;;;;8.60;2.28;;;;;;;;;;6210392;23;20017;-93
2023/09/20 00:43:44;;;;;;;4.30;2.35;;;;;;;;;;6212897;23;20013;-92
2023/09/20 00:46:12;;;;;;;4.68;1.80;;;;;;;;;;6210962;23;20017;-92
2023/09/20 00:48:39;;;;;;;7.18;2.25;;;;;;;;;;6210433;23;20027;-89
2023/09/20 00:51:09;;;;;;;7.25;2.28;;;;;;;;;;6210079;23;20017;-89
2023/09/20 00:53:35;;;;;;;8.70;2.80;;;;;;;;;;6211248;23;20017;-91
2023/09/20 00:56:05;;;;;;;4.55;2.25;;;;;;;;;;6212133;23;20020;-90
2023/09/20 00:58:34;;;;;;;4.55;2.28;;;;;;;;;;6209582;23;20441;-94
2023/09/20 01:01:00;;;;;;;4.85;2.00;;;;;;;;;;6210787;23;20009;-88
2023/09/20 01:03:28;;;;;;;4.63;1.95;;;;;;;;;;6212565;23;20096;-90
2023/09/20 01:05:55;;;;;;;3.78;1.85;;;;;;;;;;6209822;23;20500;-90
2023/09/20 01:08:21;;;;;;;3.70;2.10;;;;;;;;;;6211112;23;20017;-95
2023/09/20 01:10:48;;;;;;;7.15;2.03;;;;;;;;;;6213133;23;20008;-94
2023/09/20 01:13:15;;;;;;;4.30;2.45;;;;;;;;;;6209280;23;20111;-91
2023/09/20 01:15:42;;;;;;;2.28;1.73;;;;;;;;;;6211786;23;20405;-94
2023/09/20 01:18:08;;;;;;;6.20;2.20;;;;;;;;;;6212692;23;20043;-93
2023/09/20 01:20:36;;;;;;;3.75;1.83;;;;;;;;;;6209615;23;20071;-92
2023/09/20 01:23:02;;;;;;;3.72;2.10;;;;;;;;;;6209600;23;20028;-92
2023/09/20 01:25:33;;;;;;;5.68;2.53;;;;;;;;;;6210252;23;20064;-90
2023/09/20 01:27:59;;;;;;;5.47;1.92;;;;;;;;;;6210040;23;20380;-88
2023/09/20 01:30:29;;;;;;;5.65;2.58;;;;;;;;;;6211451;23;20017;-90
2023/09/20 01:32:55;;;;;;;6.28;2.30;;;;;;;;;;6209954;23;20342;-91
2023/09/20 01:35:22;;;;;;;4.47;2.30;;;;;;;;;;6209412;23;20100;-92
2023/09/20 01:37:51;;;;;;;6.30;2.40;;;;;;;;;;6210136;23;20035;-92
2023/09/20 01:40:19;;;;;;;4.28;1.85;;;;;;;;;;6210421;23;20391;-91
2023/09/20 01:42:48;;;;;;;5.35;2.17;;;;;;;;;;6213735;23;20013;-91
2023/09/20 01:45:16;;;;;;;3.05;1.88;;;;;;;;;;6210949;23;20147;-89
2023/09/20 01:47:42;;;;;;;3.60;1.67;;;;;;;;;;6211959;23;20086;-91
2023/09/20 01:50:10;;;;;;;4.60;2.00;;;;;;;;;;6210492;23;20086;-91
2023/09/20 01:52:37;;;;;;;4.78;1.83;;;;;;;;;;6213256;23;20013;-92
2023/09/20 01:55:03;;;;;;;5.20;1.83;;;;;;;;;;6211598;23;20342;-93
2023/09/20 01:57:29;;;;;;;2.15;1.50;;;;;;;;;;6213425;23;20016;-91
2023/09/20 01:59:57;;;;;;;6.95;1.73;;;;;;;;;;6211963;23;20044;-92
2023/09/20 02:02:23;;;;;;;3.97;2.20;;;;;;;;;;6213214;23;20311;-88
2023/09/20 02:04:49;;;;;;;4.82;1.65;;;;;;;;;;6214557;23;20039;-91
2023/09/20 02:07:15;;;;;;;3.70;1.40;;;;;;;;;;6217567;23;20024;-91
2023/09/20 02:09:41;;;;;;;4.70;1.92;;;;;;;;;;6216668;23;20024;-90
2023/09/20 02:12:07;;;;;;;5.47;1.88;;;;;;;;;;6191767;23;20023;-93
2023/09/20 02:14:33;;;;;;;3.20;1.83;;;;;;;;;;6243666;23;20161;-92
2023/09/20 02:16:59;;;;;;;3.90;1.88;;;;;;;;;;6242024;23;20047;-92
2023/09/20 02:19:25;;;;;;;5.93;1.80;;;;;;;;;;6215400;23;20016;-94
2023/09/20 02:21:54;;;;;;;7.35;2.22;;;;;;;;;;6218624;23;20087;-93
2023/09/20 02:24:22;;;;;;;4.95;1.95;;;;;;;;;;6216256;23;20514;-92
2023/09/20 02:26:48;;;;;;;4.00;2.05;;;;;;;;;;6215843;23;20016;-89
2023/09/20 02:29:14;;;;;;;4.75;1.70;;;;;;;;;;6217271;23;20421;-87
2023/09/20 02:31:41;;;;;;;4.55;1.90;;;;;;;;;;6244334;23;20087;-93
2023/09/20 02:34:08;;;;;;;4.53;1.80;;;;;;;;;;6215140;23;20369;-90
2023/09/20 02:36:34;;;;;;;4.47;1.90;;;;;;;;;;6242564;23;20016;-90
2023/09/20 02:39:00;;;;;;;3.42;1.95;;;;;;;;;;6241039;23;20016;-93
2023/09/20 02:41:26;;;;;;;3.70;1.83;;;;;;;;;;6242343;23;20012;-91
2023/09/20 02:43:52;;;;;;;5.55;1.83;;;;;;;;;;6243168;23;20093;-91
2023/09/20 02:46:20;;;;;;;3.05;1.85;;;;;;;;;;6245730;23;20020;-91
2023/09/20 02:48:47;;;;;;;5.88;2.45;;;;;;;;;;6216095;23;20008;-96
2023/09/20 02:51:13;;;;;;;3.15;1.98;;;;;;;;;;6214735;23;20012;-94
2023/09/20 02:53:40;;;;;;;3.65;1.40;;;;;;;;;;6215741;23;20016;-92
2023/09/20 02:56:08;;;;;;;3.10;1.95;;;;;;;;;;6215387;23;20020;-92
2023/09/20 02:58:37;;;;;;;2.60;1.67;;;;;;;;;;6217580;23;20062;-92
2023/09/20 03:01:03;;;;;;;5.85;2.38;;;;;;;;;;6242411;23;20430;-92
2023/09/20 03:03:29;;;;;;;3.08;1.45;;;;;;;;;;6215064;23;20024;-93
2023/09/20 03:05:56;;;;;;;4.00;1.92;;;;;;;;;;6243016;23;20353;-92
2023/09/20 03:08:24;;;;;;;5.50;1.70;;;;;;;;;;6242479;23;20387;-93
2023/09/20 03:10:53;;;;;;;6.00;2.00;;;;;;;;;;6242769;23;20462;-91
2023/09/20 03:13:19;;;;;;;3.00;1.95;;;;;;;;;;6243308;23;20016;-94
2023/09/20 03:15:46;;;;;;;4.13;1.95;;;;;;;;;;6215630;23;20024;-91
2023/09/20 03:18:14;;;;;;;4.93;1.80;;;;;;;;;;6213964;23;20343;-92
2023/09/20 03:20:43;;;;;;;5.40;2.28;;;;;;;;;;6216282;23;20020;-92
2023/09/20 03:23:10;;;;;;;4.35;1.83;;;;;;;;;;6214661;23;20042;-93
2023/09/20 03:25:36;;;;;;;3.97;2.33;;;;;;;;;;6216801;23;20013;-89
2023/09/20 03:28:07;;;;;;;4.75;1.80;;;;;;;;;;6217794;23;20019;-92
2023/09/20 03:30:34;;;;;;;2.70;1.98;;;;;;;;;;6216418;23;20453;-93
2023/09/20 03:33:00;;;;;;;4.38;1.83;;;;;;;;;;6216367;23;20091;-94
2023/09/20 03:35:27;;;;;;;3.50;2.10;;;;;;;;;;6217334;23;20023;-91
2023/09/20 03:37:54;;;;;;;4.13;1.60;;;;;;;;;;6215716;23;20365;-93
2023/09/20 03:40:22;;;;;;;6.22;2.20;;;;;;;;;;6217607;23;20016;-94
2023/09/20 03:42:49;;;;;;;4.80;2.10;;;;;;;;;;6214842;23;20016;-95
2023/09/20 03:45:16;;;;;;;5.00;1.83;;;;;;;;;;6190739;23;20047;-94
2023/09/20 03:47:42;;;;;;;6.72;2.35;;;;;;;;;;6215371;23;20429;-90
2023/09/20 03:50:10;;;;;;;4.72;1.63;;;;;;;;;;6214495;23;20100;-91
2023/09/20 03:52:37;;;;;;;4.45;2.10;;;;;;;;;;6217062;23;20024;-92
2023/09/20 03:55:03;;;;;;;7.65;2.45;;;;;;;;;;6216675;23;20023;-89
2023/09/20 03:57:29;;;;;;;4.03;2.10;;;;;;;;;;6218717;23;20027;-93
2023/09/20 03:59:59;;;;;;;3.78;1.75;;;;;;;;;;6244911;23;20027;-91
2023/09/20 04:02:25;;;;;;;5.68;1.83;;;;;;;;;;6244265;23;20433;-91
2023/09/20 04:04:52;;;;;;;9.48;1.88;;;;;;;;;;6244678;22;20100;-92
2023/09/20 04:07:18;;;;;;;5.53;2.00;;;;;;;;;;6221580;23;20051;-92
2023/09/20 04:09:44;;;;;;;4.10;2.05;;;;;;;;;;6220651;23;20016;-92
2023/09/20 04:12:11;;;;;;;5.18;1.85;;;;;;;;;;6218286;23;20020;-93
2023/09/20 04:14:37;;;;;;;2.78;1.90;;;;;;;;;;6216059;23;20081;-92
2023/09/20 04:17:04;;;;;;;3.90;1.90;;;;;;;;;;6243084;23;20043;-95
2023/09/20 04:19:30;;;;;;;4.65;1.85;;;;;;;;;;6243444;23;20054;-92
2023/09/20 04:21:56;;;;;;;5.35;1.90;;;;;;;;;;6215978;23;20016;-94
2023/09/20 04:24:23;;;;;;;3.15;1.50;;;;;;;;;;6214776;23;20016;-92
2023/09/20 04:26:49;;;;;;;4.07;1.70;;;;;;;;;;6214996;23;20065;-93
2023/09/20 04:29:16;;;;;;;4.43;1.63;;;;;;;;;;6216020;23;20345;-93
2023/09/20 04:31:43;;;;;;;4.95;1.90;;;;;;;;;;6243913;23;20014;-91
2023/09/20 04:34:11;;;;;;;4.70;1.98;;;;;;;;;;6243955;23;20016;-92
2023/09/20 04:36:37;;;;;;;3.05;1.98;;;;;;;;;;6216407;23;20012;-93
2023/09/20 04:39:04;;;;;;;5.18;1.67;;;;;;;;;;6241552;23;20441;-92
2023/09/20 04:41:32;;;;;;;5.57;2.10;;;;;;;;;;6242918;23;20323;-91
2023/09/20 04:43:58;;;;;;;4.93;1.63;;;;;;;;;;6214756;23;20016;-91
2023/09/20 04:46:27;;;;;;;2.75;1.50;;;;;;;;;;6245690;23;20038;-92
2023/09/20 04:48:53;;;;;;;5.68;2.10;;;;;;;;;;6244981;23;20066;-92
2023/09/20 04:51:20;;;;;;;3.85;1.70;;;;;;;;;;6251257;23;20015;-91
2023/09/20 04:53:47;;;;;;;3.80;1.77;;;;;;;;;;6195049;23;20016;-93
2023/09/20 04:56:13;;;;;;;3.92;1.80;;;;;;;;;;6241346;23;20016;-93
2023/09/20 04:58:39;;;;;;;6.43;1.60;;;;;;;;;;6214777;23;20386;-92
2023/09/20 05:01:05;;;;;;;3.75;1.60;;;;;;;;;;6214668;23;20012;-92
2023/09/20 05:03:31;;;;;;;3.55;1.23;;;;;;;;;;6215286;23;20020;-92
2023/09/20 05:05:57;;;;;;;5.97;2.15;;;;;;;;;;6215682;23;20022;-92
2023/09/20 05:08:23;;;;;;;2.13;1.30;;;;;;;;;;6242679;23;20044;-92
2023/09/20 05:10:49;;;;;;;4.20;1.60;;;;;;;;;;6244181;23;20464;-93
2023/09/20 05:13:16;;;;;;;4.70;1.98;;;;;;;;;;6215216;23;20091;-91
2023/09/20 05:15:42;;;;;;;3.75;1.70;;;;;;;;;;6244733;23;20101;-92
2023/09/20 05:18:09;;;;;;;3.17;1.83;;;;;;;;;;6217384;23;20016;-93
2023/09/20 05:20:35;;;;;;;3.90;1.20;;;;;;;;;;6244987;23;20012;-92
2023/09/20 05:23:04;;;;;;;2.65;1.98;;;;;;;;;;6245136;23;20011;-95
2023/09/20 05:25:30;;;;;;;4.00;1.77;;;;;;;;;;6244726;23;20020;-93
2023/09/20 05:27:56;;;;;;;3.20;1.50;;;;;;;;;;6245335;23;20016;-94
2023/09/20 05:30:22;;;;;;;3.55;1.60;;;;;;;;;;6219100;23;20314;-92
2023/09/20 05:32:51;;;;;;;6.05;1.52;;;;;;;;;;6219647;23;20333;-91
2023/09/20 05:35:17;;;;;;;3.88;1.65;;;;;;;;;;6244262;23;20334;-93
2023/09/20 05:37:44;;;;;;;2.17;1.58;;;;;;;;;;6243923;23;20082;-92
2023/09/20 05:40:17;;;;;;;5.25;1.73;;;;;;;;;;6218271;23;20044;-88
2023/09/20 05:42:46;;;;;;;3.67;1.70;;;;;;;;;;6245697;23;20012;-92
2023/09/20 05:45:15;;;;;;;4.78;1.60;;;;;;;;;;6214942;23;20016;-87
2023/09/20 05:47:44;;;;;;;4.95;1.83;;;;;;;;;;6241151;23;20012;-88
2023/09/20 05:50:12;;;;;;;4.10;1.35;;;;;;;;;;6206592;23;20026;-87
2023/09/20 05:52:45;;;;;;;3.47;1.50;;;;;;;;;;6243211;23;20039;-88
2023/09/20 05:55:13;;;;;;;3.45;1.42;;;;;;;;;;6191488;23;20024;-88
2023/09/20 05:57:43;;;;;;;3.70;1.58;;;;;;;;;;6244184;23;20073;-86
2023/09/20 06:00:16;;;;;;;6.85;1.98;;;;;;;;;;6242586;23;20012;-88
2023/09/20 06:02:42;;;;;;;7.47;2.15;;;;;;;;;;6242516;23;20011;-87
2023/09/20 06:05:10;;;;;;;2.80;1.40;;;;;;;;;;6242174;23;20058;-88
2023/09/20 06:07:36;;;;;;;3.90;1.52;;;;;;;;;;6242976;23;20016;-88
2023/09/20 06:10:04;;;;;;;3.28;1.58;;;;;;;;;;6242364;23;20337;-89
2023/09/20 06:12:31;;;;;;;3.70;1.38;;;;;;;;;;6215533;23;20020;-92
2023/09/20 06:14:57;;;;;;;3.80;1.42;;;;;;;;;;6241894;23;20019;-93
2023/09/20 06:17:23;;;;;;;4.50;1.40;;;;;;;;;;6241310;23;20009;-91
2023/09/20 06:19:49;;;;;;;3.50;1.40;;;;;;;;;;6240027;23;20008;-89
2023/09/20 06:22:16;;;;;;;2.38;1.40;;;;;;;;;;6242448;23;20044;-94
2023/09/20 06:24:46;;;;;;;5.30;1.70;;;;;;;;;;6247132;23;20020;-96
2023/09/20 06:27:12;;;;;;;3.60;1.40;;;;;;;;;;6254411;23;20016;-95
2023/09/20 06:29:38;;;;;;;3.15;1.52;;;;;;;;;;6250165;23;20042;-94
2023/09/20 06:32:04;;;;;;;3.08;1.50;;;;;;;;;;6242277;23;20058;-92
2023/09/20 06:34:31;;;;;;;5.50;1.77;;;;;;;;;;6215916;23;20394;-93
2023/09/20 06:36:57;;;;;;;2.45;1.60;;;;;;;;;;6214479;23;20283;-91
2023/09/20 06:39:25;;;;;;;3.00;1.60;;;;;;;;;;6217323;23;20012;-94
2023/09/20 06:41:52;;;;;;;3.38;1.50;;;;;;;;;;6243334;23;20315;-88
2023/09/20 06:44:18;;;;;;;2.85;1.67;;;;;;;;;;6239988;23;20044;-87
2023/09/20 06:46:45;;;;;;;2.20;1.33;;;;;;;;;;6241275;23;20016;-86
2023/09/20 06:49:11;;;;;;;2.60;1.48;;;;;;;;;;6238851;23;20060;-87
2023/09/20 06:51:42;;;;;;;3.95;1.88;;;;;;;;;;6241189;23;20019;-86
2023/09/20 06:54:08;;;;;;;3.22;1.40;;;;;;;;;;6210167;23;20008;-86
2023/09/20 06:56:35;;;;;;;2.25;1.40;;;;;;;;;;6238681;23;20039;-87
2023/09/20 06:59:01;;;;;;;4.30;2.00;;;;;;;;;;6239572;23;20016;-89
2023/09/20 07:01:29;;;;;;;6.10;2.00;;;;;;;;;;6212276;23;20012;-86
2023/09/20 07:03:55;;;;;;;3.42;1.85;;;;;;;;;;6240394;23;20464;-84
2023/09/20 07:06:21;;;;;;;3.90;1.60;;;;;;;;;;6211667;23;20016;-85
2023/09/20 07:08:47;;;;;;;5.20;1.80;;;;;;;;;;6214175;23;20381;-83
2023/09/20 07:11:14;;;;;;;3.90;1.50;;;;;;;;;;6239572;23;20091;-85
2023/09/20 07:13:40;;;;;;;4.65;2.30;;;;;;;;;;6240437;23;20391;-84
2023/09/20 07:16:06;;;;;;;4.07;1.92;;;;;;;;;;6238850;23;20058;-84
2023/09/20 07:18:32;;;;;;;5.57;1.95;;;;;;;;;;6241765;23;20043;-86
2023/09/20 07:20:58;;;;;;;3.72;1.48;;;;;;;;;;6240649;23;20378;-86
2023/09/20 07:23:24;;;;;;;5.50;2.60;;;;;;;;;;6240607;23;20083;-86
2023/09/20 07:25:50;;;;;;;4.47;1.90;;;;;;;;;;6212061;23;20020;-85
2023/09/20 07:28:17;;;;;;;5.57;2.17;;;;;;;;;;6240646;23;20095;-85
2023/09/20 07:30:47;;;;;;;3.78;1.88;;;;;;;;;;6240749;23;20495;-85
2023/09/20 07:33:19;;;;;;;4.80;2.13;;;;;;;;;;6238475;23;20012;-86
2023/09/20 07:35:48;;;;;;;6.47;1.83;;;;;;;;;;6240127;23;20107;-86
2023/09/20 07:40:50;;;;;;;4.22;1.83;;;;;;;;;;6240520;23;20035;-85
2023/09/20 07:43:17;;;;;;;4.10;1.75;;;;;;;;;;6239437;23;20016;-84
2023/09/20 07:45:44;;;;;;;4.60;2.00;;;;;;;;;;6214211;23;20051;-85
2023/09/20 07:48:13;;;;;;;3.70;1.70;;;;;;;;;;6214039;23;20020;-89
2023/09/20 07:50:40;;;;;;;3.63;2.03;;;;;;;;;;6245220;23;20012;-89
2023/09/20 07:53:10;;;;;;;3.08;1.90;;;;;;;;;;6238296;23;20083;-88
2023/09/20 07:55:36;;;;;;;5.03;2.30;;;;;;;;;;6215123;23;20016;-88
2023/09/20 07:58:02;;;;;;;4.38;2.13;;;;;;;;;;6241150;23;20016;-85
2023/09/20 08:00:28;;;;;;;4.82;2.20;;;;;;;;;;6241495;23;20342;-92
2023/09/20 08:02:54;;;;;;;5.43;2.95;;;;;;;;;;6245129;23;20012;-91
2023/09/20 08:05:22;;;;;;;4.40;2.03;;;;;;;;;;6246567;23;20039;-88
2023/09/20 08:07:48;;;;;;;4.07;2.15;;;;;;;;;;6221848;23;20327;-92
2023/09/20 08:10:14;;;;;;;4.85;2.08;;;;;;;;;;6214414;23;20023;-92
2023/09/20 08:12:40;;;;;;;4.50;1.83;;;;;;;;;;6215843;23;20024;-89
2023/09/20 08:15:06;;;;;;;4.53;2.08;;;;;;;;;;6212133;23;20016;-86
2023/09/20 08:20:39;;;;;;;4.15;2.08;;;;;;;;;;6217428;23;20023;-84
2023/09/20 09:01:38;;;;;;;3.08;1.65;;;;;;;;;;6250274;23;20020;-93
2023/09/20 09:04:10;;;;;;;2.30;1.80;;;;;;;;;;6253519;23;20070;-95
2023/09/20 09:06:36;;;;;;;2.40;1.70;;;;;;;;;;6247144;22;20087;-95
2023/09/20 09:09:02;;;;;;;2.58;1.65;;;;;;;;;;6226619;23;20020;-95
2023/09/20 09:11:28;;;;;;;2.67;1.70;;;;;;;;;;6253964;23;20496;-92
2023/09/20 09:13:58;;;;;;;2.85;1.67;;;;;;;;;;6249723;23;20012;-93
2023/09/20 09:16:25;;;;;;;3.95;1.70;;;;;;;;;;6248831;23;20013;-94
2023/09/20 09:18:51;;;;;;;1.65;1.52;;;;;;;;;;6261555;23;20004;-94
2023/09/20 09:21:18;;;;;;;2.00;1.50;;;;;;;;;;6236417;23;20020;-95
2023/09/20 09:23:46;;;;;;;2.42;1.65;;;;;;;;;;6233247;23;20027;-95
2023/09/20 09:26:13;;;;;;;3.03;1.75;;;;;;;;;;6234469;23;20016;-96
2023/09/20 09:28:44;;;;;;;4.10;2.15;;;;;;;;;;6228389;23;20026;-94
2023/09/20 09:31:11;;;;;;;4.43;1.67;;;;;;;;;;6223715;23;20086;-93
2023/09/20 09:33:37;;;;;;;3.33;2.00;;;;;;;;;;6221710;23;20016;-88
2023/09/20 09:36:07;;;;;;;3.67;1.80;;;;;;;;;;6213909;23;20043;-91
2023/09/20 09:38:36;;;;;;;1.90;1.55;;;;;;;;;;6214296;23;20377;-90
2023/09/20 09:41:03;;;;;;;4.22;1.77;;;;;;;;;;6244605;23;20019;-90
2023/09/20 09:43:29;;;;;;;4.57;1.65;;;;;;;;;;6243463;23;20016;-91
2023/09/20 09:46:03;;;;;;;3.95;1.58;;;;;;;;;;6248520;23;20091;-92
2023/09/20 09:48:31;;;;;;;4.38;1.60;;;;;;;;;;6250286;23;20099;-95
2023/09/20 09:51:01;;;;;;;2.90;1.73;;;;;;;;;;6223176;23;20346;-95
2023/09/20 09:53:29;;;;;;;2.83;1.40;;;;;;;;;;6227722;23;20013;-92
2023/09/20 09:55:56;;;;;;;3.53;1.60;;;;;;;;;;6227263;23;20016;-93
2023/09/20 09:58:22;;;;;;;4.95;1.92;;;;;;;;;;6219730;23;20017;-94
2023/09/20 10:00:50;;;;;;;3.88;1.60;;;;;;;;;;6191375;23;20014;-95
2023/09/20 10:03:18;;;;;;;5.15;2.13;;;;;;;;;;6245933;23;20008;-89
2023/09/20 10:05:46;;;;;;;3.17;1.63;;;;;;;;;;6246560;23;20392;-91
2023/09/20 10:08:13;;;;;;;3.97;1.50;;;;;;;;;;6246028;23;20023;-95
2023/09/20 10:10:41;;;;;;;2.28;1.42;;;;;;;;;;6247839;23;20012;-91
2023/09/20 10:13:08;;;;;;;2.42;1.40;;;;;;;;;;6248966;23;20311;-95
2023/09/20 10:15:35;;;;;;;3.67;1.60;;;;;;;;;;6249497;23;20044;-92
2023/09/20 10:18:02;;;;;;;3.55;1.55;;;;;;;;;;6221709;23;20019;-93
2023/09/20 10:20:48;;;;;;;4.32;2.13;;;;;;;;;;6224964;23;20020;-93
2023/09/20 10:23:16;;;;;;;2.13;1.63;;;;;;;;;;6249404;23;20536;-92
2023/09/20 10:25:48;;;;;;;2.13;1.15;;;;;;;;;;6247843;23;20066;-95
2023/09/20 10:28:17;;;;;;;2.15;1.38;;;;;;;;;;6247220;23;20020;-92
2023/09/20 10:31:02;;;;;;;2.45;1.60;;;;;;;;;;6246527;23;20016;-94
2023/09/20 10:33:41;;;;;;;2.08;1.52;;;;;;;;;;6249252;23;20091;-94
2023/09/20 10:36:07;;;;;;;3.58;1.58;;;;;;;;;;6246795;23;20441;-92
2023/09/20 10:38:33;;;;;;;2.35;1.20;;;;;;;;;;6220440;23;20020;-95
2023/09/20 10:41:05;;;;;;;2.58;1.60;;;;;;;;;;6248164;23;20012;-93
2023/09/20 10:43:37;;;;;;;2.72;1.45;;;;;;;;;;6243932;23;20434;-93
2023/09/20 10:46:07;;;;;;;1.73;1.10;;;;;;;;;;6246171;23;20026;-92
2023/09/20 10:48:33;;;;;;;3.00;1.65;;;;;;;;;;6244962;23;20094;-95
2023/09/20 10:51:03;;;;;;;2.03;1.58;;;;;;;;;;6216131;23;20026;-89
2023/09/20 10:53:44;;;;;;;2.00;1.02;;;;;;;;;;6216550;23;20024;-92
2023/09/20 10:56:12;;;;;;;4.28;1.63;;;;;;;;;;6240521;23;20012;-87
2023/09/20 10:58:42;;;;;;;2.60;1.70;;;;;;;;;;6241732;23;20043;-91
2023/09/20 11:01:08;;;;;;;2.30;1.55;;;;;;;;;;6212825;23;20012;-89
2023/09/20 11:03:34;;;;;;;2.78;1.48;;;;;;;;;;6242321;23;20361;-86
2023/09/20 11:06:00;;;;;;;1.33;1.23;;;;;;;;;;6212639;23;20104;-89
2023/09/20 11:08:27;;;;;;;1.70;1.10;;;;;;;;;;6214135;23;20324;-87
2023/09/20 11:10:54;;;;;;;1.80;1.42;;;;;;;;;;6242408;23;20016;-87
2023/09/20 11:13:22;;;;;;;4.20;1.42;;;;;;;;;;6214162;23;20146;-87
2023/09/20 11:15:48;;;;;;;2.70;1.35;;;;;;;;;;6241225;23;20012;-88
2023/09/20 11:18:19;;;;;;;1.80;1.10;;;;;;;;;;6214343;23;20023;-87
2023/09/20 11:20:47;;;;;;;2.85;1.30;;;;;;;;;;6241336;23;20008;-86
2023/09/20 11:23:13;;;;;;;3.58;1.60;;;;;;;;;;6214041;23;20012;-87
2023/09/20 11:25:43;;;;;;;1.85;1.40;;;;;;;;;;6212525;23;20028;-86
2023/09/20 11:28:09;;;;;;;1.67;1.17;;;;;;;;;;6240375;23;20069;-90
2023/09/20 11:30:36;;;;;;;1.45;1.08;;;;;;;;;;6214942;23;20098;-89
2023/09/20 11:33:02;;;;;;;3.17;1.25;;;;;;;;;;6241911;23;20303;-90
2023/09/20 11:35:35;;;;;;;2.45;1.33;;;;;;;;;;6214366;23;20405;-88
2023/09/20 11:38:04;;;;;;;3.67;1.90;;;;;;;;;;6213427;23;20079;-89
2023/09/20 11:40:31;;;;;;;1.88;1.30;;;;;;;;;;6214558;23;20016;-87
2023/09/20 11:42:57;;;;;;;1.92;1.42;;;;;;;;;;6214858;23;20042;-87
2023/09/20 11:45:25;;;;;;;3.30;1.73;;;;;;;;;;6214357;23;20475;-85
2023/09/20 11:47:52;;;;;;;4.35;1.75;;;;;;;;;;6214017;23;20024;-87
2023/09/20 11:50:18;;;;;;;3.13;1.58;;;;;;;;;;6214546;23;20012;-87
2023/09/20 11:52:48;;;;;;;2.72;1.42;;;;;;;;;;6214501;23;20012;-83
2023/09/20 11:55:15;;;;;;;1.70;1.50;;;;;;;;;;6240310;23;20073;-86
2023/09/20 11:57:45;;;;;;;2.70;1.70;;;;;;;;;;6241522;23;20016;-86
2023/09/20 12:00:12;;;;;;;;;;;;;;;;;;6213405;23;20060;-88
2023/09/20 12:02:38;;;;;;;4.63;1.70;;;;;;;;;;6214523;23;19961;-86
2023/09/20 12:05:05;;;;;;;2.75;1.90;;;;;;;;;;6213636;23;20026;-86
2023/09/20 12:07:32;;;;;;;2.55;1.38;;;;;;;;;;6212385;23;20020;-89
2023/09/20 12:09:58;;;;;;;3.65;1.80;;;;;;;;;;6239714;23;20042;-86
2023/09/20 12:12:24;;;;;;;2.97;1.67;;;;;;;;;;6240785;23;20047;-88
2023/09/20 12:14:50;;;;;;;1.95;1.75;;;;;;;;;;6213631;23;20023;-88
2023/09/20 12:17:16;;;;;;;2.78;1.70;;;;;;;;;;6213669;23;20039;-88
2023/09/20 12:19:43;;;;;;;5.38;1.90;;;;;;;;;;6241226;23;20008;-88
2023/09/20 12:22:09;;;;;;;3.22;2.00;;;;;;;;;;6240209;23;20079;-87
2023/09/20 12:24:35;;;;;;;2.50;1.67;;;;;;;;;;6241735;23;20391;-86
2023/09/20 12:27:01;;;;;;;2.45;1.80;;;;;;;;;;6241440;23;20078;-87
2023/09/20 12:29:27;;;;;;;4.28;1.92;;;;;;;;;;6240776;23;20012;-89
2023/09/20 12:31:55;;;;;;;4.18;1.92;;;;;;;;;;6240931;23;20012;-89
2023/09/20 12:34:21;;;;;;;3.03;1.83;;;;;;;;;;6241690;23;20008;-90
2023/09/20 12:36:48;;;;;;;3.83;2.00;;;;;;;;;;6242317;23;20012;-91
2023/09/20 12:39:16;;;;;;;3.13;2.15;;;;;;;;;;6242065;23;20053;-90
2023/09/20 12:41:42;;;;;;;2.65;1.95;;;;;;;;;;6241942;23;20040;-93
2023/09/20 12:44:08;;;;;;;2.60;1.77;;;;;;;;;;6240395;23;20012;-92
2023/09/20 12:46:36;;;;;;;5.18;1.75;;;;;;;;;;6214436;23;20148;-94
2023/09/20 12:49:04;;;;;;;4.18;2.05;;;;;;;;;;6214213;23;20024;-92
2023/09/20 12:51:30;;;;;;;3.63;2.17;;;;;;;;;;6241473;23;20008;-91
2023/09/20 12:53:56;;;;;;;3.33;2.33;;;;;;;;;;6215077;23;20338;-89
2023/09/20 12:56:22;;;;;;;2.40;1.42;;;;;;;;;;6241342;23;20068;-90
2023/09/20 12:58:50;;;;;;;4.82;1.90;;;;;;;;;;6240587;23;20008;-89
2023/09/20 13:01:16;;;;;;;3.85;2.05;;;;;;;;;;6214886;23;20071;-91
2023/09/20 13:03:43;;;;;;;2.92;1.83;;;;;;;;;;6215633;23;20095;-85
2023/09/20 13:06:11;;;;;;;3.45;1.85;;;;;;;;;;6212524;23;20024;-90
2023/09/20 13:08:40;;;;;;;2.85;1.77;;;;;;;;;;6213438;23;20024;-91
2023/09/20 13:11:10;;;;;;;2.47;1.60;;;;;;;;;;6239129;23;20111;-87
2023/09/20 13:13:41;;;;;;;2.67;1.67;;;;;;;;;;6240220;23;20020;-87
2023/09/20 13:16:09;;;;;;;3.03;1.70;;;;;;;;;;6211895;23;20020;-86
2023/09/20 13:18:36;;;;;;;2.20;1.45;;;;;;;;;;6214263;23;20016;-87
2023/09/20 13:21:04;;;;;;;7.45;1.90;;;;;;;;;;6239195;23;20019;-88
2023/09/20 13:23:30;;;;;;;2.40;1.42;;;;;;;;;;6240033;23;20051;-86
2023/09/20 13:25:56;;;;;;;2.55;1.40;;;;;;;;;;6212105;23;20055;-85
2023/09/20 13:28:22;;;;;;;2.97;1.65;;;;;;;;;;6238463;23;20388;-85
2023/09/20 13:30:51;;;;;;;3.20;2.00;;;;;;;;;;6214484;23;20044;-85
2023/09/20 13:33:17;;;;;;;2.30;2.00;;;;;;;;;;6212537;23;20012;-85
2023/09/20 13:35:43;;;;;;;2.28;1.60;;;;;;;;;;6236579;23;20026;-86
2023/09/20 13:38:11;;;;;;;2.90;1.65;;;;;;;;;;6213541;23;20361;-85
2023/09/20 13:40:38;;;;;;;2.08;1.77;;;;;;;;;;6214565;23;20016;-86
2023/09/20 13:43:04;;;;;;;2.38;1.70;;;;;;;;;;6242286;23;20012;-90
2023/09/20 13:45:32;;;;;;;6.10;2.03;;;;;;;;;;6190418;23;20019;-91
2023/09/20 13:47:58;;;;;;;3.05;1.50;;;;;;;;;;6243147;23;20023;-93
2023/09/20 13:50:24;;;;;;;2.17;1.38;;;;;;;;;;6213965;23;20012;-88
2023/09/20 13:52:51;;;;;;;2.85;1.27;;;;;;;;;;6241776;23;20341;-90
2023/09/20 13:55:18;;;;;;;2.65;1.30;;;;;;;;;;6215029;23;20023;-91
2023/09/20 13:57:48;;;;;;;1.65;1.35;;;;;;;;;;6242521;23;20020;-90
2023/09/20 14:00:17;;;;;;;1.67;1.30;;;;;;;;;;6214983;23;20062;-87
2023/09/20 14:02:44;;;;;;;2.42;1.50;;;;;;;;;;6242010;23;20008;-90
2023/09/20 14:05:14;;;;;;;3.22;1.33;;;;;;;;;;6210935;23;20367;-89
2023/09/20 14:07:47;;;;;;;1.50;1.30;;;;;;;;;;6241781;23;20020;-89
2023/09/20 14:10:14;;;;;;;3.30;1.20;;;;;;;;;;6242090;23;20354;-88
2023/09/20 14:12:43;;;;;;;1.73;1.25;;;;;;;;;;6215723;23;20012;-87
2023/09/20 14:15:15;;;;;;;2.85;1.40;;;;;;;;;;6213726;23;20028;-89
2023/09/20 14:17:44;;;;;;;1.45;1.20;;;;;;;;;;6242083;23;20075;-93
2023/09/20 14:20:15;;;;;;;1.98;1.15;;;;;;;;;;6241819;23;20092;-93
2023/09/20 14:22:41;;;;;;;2.17;0.98;;;;;;;;;;6247103;23;20016;-95
2023/09/20 14:25:13;;;;;;;1.70;1.17;;;;;;;;;;6219071;23;20050;-88
2023/09/20 14:27:40;;;;;;;2.92;1.00;;;;;;;;;;6243346;23;20016;-90
2023/09/20 14:30:10;;;;;;;2.10;1.20;;;;;;;;;;6214850;23;20046;-90
2023/09/20 14:32:36;;;;;;;1.30;1.20;;;;;;;;;;6216002;23;20016;-92
2023/09/20 14:35:03;;;;;;;2.90;1.55;;;;;;;;;;6240622;23;20051;-89
2023/09/20 14:37:29;;;;;;;1.30;1.20;;;;;;;;;;6215330;23;20031;-87
2023/09/20 14:39:56;;;;;;;1.75;1.27;;;;;;;;;;6240073;23;20377;-87
2023/09/20 14:42:25;;;;;;;2.47;1.10;;;;;;;;;;6215777;23;20084;-89
2023/09/20 14:44:52;;;;;;;1.92;1.00;;;;;;;;;;6242003;23;20024;-89
2023/09/20 14:47:19;;;;;;;1.88;1.17;;;;;;;;;;6214157;23;20016;-90
2023/09/20 14:49:45;;;;;;;2.63;1.20;;;;;;;;;;6215820;23;20023;-91
2023/09/20 14:52:11;;;;;;;3.08;1.30;;;;;;;;;;6241431;23;20035;-90
2023/09/20 14:54:38;;;;;;;2.90;1.25;;;;;;;;;;6215128;23;20022;-87
2023/09/20 14:57:04;;;;;;;2.95;1.30;;;;;;;;;;6242231;23;20019;-88
2023/09/20 14:59:31;;;;;;;2.25;1.10;;;;;;;;;;6215237;23;20039;-90
2023/09/20 15:01:57;;;;;;;1.92;1.05;;;;;;;;;;6214802;23;20311;-90
2023/09/20 15:04:23;;;;;;;2.22;1.10;;;;;;;;;;6242363;23;20444;-90
2023/09/20 15:06:49;;;;;;;2.67;1.02;;;;;;;;;;6215202;23;20038;-89
2023/09/20 15:09:16;;;;;;;1.55;1.13;;;;;;;;;;6187661;23;20024;-89
2023/09/20 15:11:46;;;;;;;2.08;1.13;;;;;;;;;;6214275;23;20083;-92
2023/09/20 15:14:12;;;;;;;1.95;1.50;;;;;;;;;;6186290;23;20054;-91
2023/09/20 15:16:40;;;;;;;2.53;1.33;;;;;;;;;;6242039;23;20087;-90
2023/09/20 15:19:07;;;;;;;1.38;1.10;;;;;;;;;;6214078;23;20024;-87
2023/09/20 15:21:33;;;;;;;2.08;1.17;;;;;;;;;;6242321;23;20081;-86
2023/09/20 15:24:00;;;;;;;2.65;1.55;;;;;;;;;;6240500;23;20095;-86
2023/09/20 15:26:29;;;;;;;3.08;1.17;;;;;;;;;;6239975;23;20095;-85
2023/09/20 15:28:55;;;;;;;2.25;1.30;;;;;;;;;;6239033;23;20322;-85